Main page
METAR-TAF:

METAR-TAF

Airports :

Podgorica, Montenegro

Podgorica Airport

latitude: 42-26N, longitude: 019-17E, elevation: 53 m

Current weather observation

The report was made 39 minutes ago, at 21:00 UTC
Wind 12 kt from the North, varying between North/Northwest and Northeast
Temperature 6°C
Humidity 49%
Pressure 1016 hPa
Visibility 10 km or more
Broken clouds at a height of 5000 ft
Overcast at a height of 7000 ft

METAR: LYPG 172100Z 01012KT 340V040 9999 BKN050 OVC070 06/M04 Q1016 NOSIG

Time: 22:39 (21:39 UTC)

Forecast

The report was made 2 hours and 24 minutes ago, at 19:15 UTC
Forecast valid from 17 at 20 UTC to 18 at 18 UTC
Wind 8 kt from the North
Visibility 10 km or more
Broken clouds at a height of 4000 ft
Broken clouds at a height of 7000 ft
Temporary
from 17 at 20 UTC to 18 at 09 UTC
Wind 15 kt from the North/Northeast with gusts up to 25 kt

TAF: LYPG 171915Z 1720/1818 01008KT 9999 BKN040 BKN070 TX08/1813Z TN02/1806Z TEMPO 1720/1809 03015G25KT

Weather observations and forecasts of more than 4000 airports (METAR and TAF reports).

The available stations are represented by yellow and red dots on the map.

Hover mouse over dot to see the name of the station.

Then click to see weather observations and forecasts.

To change the map : click on the green buttons with a black cross to zoom in, on the green button with a dash to zoom out, or on the green arrows for adjacent maps.


METAR-TAF: